Time;durP1;ratioP1;P1;durP2;ratioP2;P2;SDS_P1;SDS_P2;PMS_P1;PMS_P2;Temp;Humidity;BMP_temperature;BMP_pressure;BME280_temperature;BME280_humidity;BME280_pressure;Samples;Min_cycle;Max_cycle;Signal;HPM_P1;HPM_P2
2022/02/07 00:00:57;;;;;;;3.83;0.65;;;21.40;99.90;;;;;;5008066;28;19961;-64
2022/02/07 00:05:57;;;;;;;9.80;1.27;;;21.20;99.90;;;;;;4987191;28;20057;-63
2022/02/07 00:08:24;;;;;;;9.02;1.10;;;21.50;99.90;;;;;;4987633;28;20031;-64
2022/02/07 00:10:55;;;;;;;4.55;0.90;;;21.60;99.90;;;;;;5001635;28;20081;-63
2022/02/07 00:13:22;;;;;;;8.25;1.33;;;21.50;99.90;;;;;;4988650;28;20038;-64
2022/02/07 00:15:49;;;;;;;6.95;1.08;;;21.50;99.90;;;;;;4989050;28;20129;-64
2022/02/07 00:18:17;;;;;;;9.43;1.38;;;21.50;99.90;;;;;;5004764;28;20027;-62
2022/02/07 00:20:44;;;;;;;8.73;1.23;;;21.50;99.90;;;;;;5004891;28;20033;-62
2022/02/07 00:23:11;;;;;;;4.95;0.65;;;21.50;99.90;;;;;;4999029;28;20026;-63
2022/02/07 00:25:39;;;;;;;6.35;0.60;;;21.70;99.90;;;;;;4997736;28;20031;-63
2022/02/07 00:28:06;;;;;;;4.72;0.82;;;21.70;99.90;;;;;;4995309;28;20073;-63
2022/02/07 00:30:34;;;;;;;4.55;0.65;;;21.90;99.90;;;;;;4995815;28;20022;-62
2022/02/07 00:33:01;;;;;;;4.03;0.90;;;22.20;99.90;;;;;;4990966;28;20030;-63
2022/02/07 00:35:29;;;;;;;5.95;0.55;;;22.30;99.90;;;;;;4991645;28;20506;-63
2022/02/07 00:38:00;;;;;;;9.00;1.52;;;22.20;99.90;;;;;;5001247;28;20041;-63
2022/02/07 00:40:42;;;;;;;5.90;0.90;;;22.10;99.90;;;;;;4995573;28;20114;-63
2022/02/07 00:43:46;;;;;;;6.20;0.70;;;22.30;99.90;;;;;;4988429;28;20030;-63
2022/02/07 00:46:08;;;;;;;4.47;0.80;;;22.40;99.90;;;;;;4993711;28;20402;-63
2022/02/07 00:48:35;;;;;;;5.60;0.60;;;22.50;99.90;;;;;;4993546;28;20026;-63
2022/02/07 00:51:02;;;;;;;9.13;1.02;;;23.10;99.90;;;;;;4995313;28;20117;-63
2022/02/07 00:53:34;;;;;;;4.18;0.82;;;23.70;99.90;;;;;;4996270;28;20550;-63
2022/02/07 00:56:02;;;;;;;5.07;1.50;;;24.00;99.90;;;;;;4995623;28;20399;-62
2022/02/07 00:58:30;;;;;;;6.25;1.13;;;23.60;99.90;;;;;;4987813;28;20022;-63
2022/02/07 01:00:57;;;;;;;9.75;0.98;;;23.80;99.90;;;;;;4979116;28;20030;-63
2022/02/07 01:03:25;;;;;;;8.15;1.20;;;23.30;99.90;;;;;;4996553;28;20526;-63
2022/02/07 01:05:52;;;;;;;3.83;0.80;;;23.50;99.90;;;;;;4990671;28;20049;-63
2022/02/07 01:08:27;;;;;;;6.18;1.13;;;23.60;99.90;;;;;;4994072;28;20022;-63
2022/02/07 01:11:07;;;;;;;7.07;0.90;;;23.30;99.90;;;;;;4990889;28;20030;-63
2022/02/07 01:13:55;;;;;;;6.25;1.05;;;23.30;99.90;;;;;;4975638;28;20050;-63
2022/02/07 01:57:48;;;;;;;12.05;1.25;;;22.40;99.90;;;;;;5034819;28;20037;-63
2022/02/07 02:00:17;;;;;;;8.68;1.13;;;23.20;99.90;;;;;;5033953;28;20087;-63
2022/02/07 02:02:46;;;;;;;9.82;1.33;;;23.60;99.90;;;;;;5030644;28;20033;-63
2022/02/07 02:05:14;;;;;;;6.72;1.20;;;23.20;99.90;;;;;;5036101;28;20025;-63
2022/02/07 02:07:42;;;;;;;5.75;1.08;;;22.90;99.90;;;;;;5032422;28;20132;-64
2022/02/07 02:10:11;;;;;;;6.03;1.27;;;22.60;99.90;;;;;;5038324;28;20068;-63
2022/02/07 02:13:04;;;;;;;10.20;1.52;;;22.40;99.90;;;;;;5032624;28;20041;-63
2022/02/07 02:15:41;;;;;;;7.40;1.08;;;22.60;99.90;;;;;;5032910;28;20029;-63
2022/02/07 02:18:59;;;;;;;19.02;2.83;;;22.50;99.90;;;;;;5017221;28;20083;-63
2022/02/07 02:35:51;;;;;;;9.98;1.35;;;19.10;99.90;;;;;;5036382;28;20037;-63
2022/02/07 02:38:10;;;;;;;11.57;2.15;;;19.10;99.90;;;;;;5040642;28;20038;-63
2022/02/07 02:46:14;;;;;;;2.78;0.65;;;19.30;99.90;;;;;;5042107;28;20072;-64
2022/02/07 02:48:42;;;;;;;8.05;0.70;;;19.30;99.90;;;;;;5020559;28;20556;-64
2022/02/07 02:51:10;;;;;;;6.07;1.73;;;19.30;99.90;;;;;;5022641;28;20037;-64
2022/02/07 02:53:37;;;;;;;13.27;1.65;;;19.40;99.90;;;;;;5023770;28;20054;-63
2022/02/07 02:56:05;;;;;;;3.58;0.90;;;19.50;99.90;;;;;;5022594;28;20022;-64
2022/02/07 02:58:32;;;;;;;8.15;1.20;;;19.80;99.90;;;;;;5019185;28;20045;-64
2022/02/07 03:00:59;;;;;;;4.28;0.50;;;20.00;99.90;;;;;;5026449;28;20034;-64
2022/02/07 03:03:27;;;;;;;4.05;0.55;;;20.30;99.90;;;;;;5033921;28;20037;-64
2022/02/07 03:05:54;;;;;;;4.03;0.60;;;20.70;99.90;;;;;;5027995;28;20379;-64
2022/02/07 03:08:21;;;;;;;3.15;0.47;;;21.20;99.90;;;;;;5009227;28;20030;-64
2022/02/07 03:13:44;;;;;;;3.75;0.55;;;21.40;99.90;;;;;;5023768;28;20509;-64
2022/02/07 03:18:52;;;;;;;3.65;0.45;;;21.70;99.90;;;;;;5024798;28;20041;-63
2022/02/07 03:21:19;;;;;;;3.30;0.50;;;21.80;99.90;;;;;;5023959;28;20399;-63
2022/02/07 03:23:46;;;;;;;4.65;0.88;;;21.70;99.90;;;;;;5034275;28;20021;-63
2022/02/07 03:26:17;;;;;;;5.88;0.55;;;21.70;99.90;;;;;;5038508;28;20029;-63
2022/02/07 03:28:44;;;;;;;3.63;0.38;;;21.90;99.90;;;;;;5022827;28;20022;-63
2022/02/07 03:31:11;;;;;;;5.00;0.73;;;21.90;99.90;;;;;;5018778;28;20410;-63
2022/02/07 03:33:39;;;;;;;4.13;0.65;;;21.70;99.90;;;;;;5033608;28;20017;-63
2022/02/07 03:36:06;;;;;;;7.28;1.17;;;21.60;99.90;;;;;;5019341;28;20521;-64
2022/02/07 03:38:33;;;;;;;6.28;0.88;;;21.00;99.90;;;;;;5015680;28;20048;-64
2022/02/07 03:41:01;;;;;;;5.38;1.15;;;20.20;99.90;;;;;;5015267;28;20030;-64
2022/02/07 03:43:29;;;;;;;5.03;1.10;;;19.80;99.90;;;;;;5017044;28;20045;-64
2022/02/07 03:45:56;;;;;;;4.25;0.82;;;19.80;99.90;;;;;;5027246;28;20022;-64
2022/02/07 03:48:24;;;;;;;6.10;0.65;;;19.90;99.90;;;;;;5020070;28;20034;-63
2022/02/07 03:50:51;;;;;;;3.90;0.70;;;20.00;99.90;;;;;;5015443;28;20466;-63
2022/02/07 03:53:19;;;;;;;5.65;0.47;;;20.00;99.90;;;;;;5034005;28;20589;-63
2022/02/07 03:55:46;;;;;;;5.40;0.85;;;19.90;99.90;;;;;;5019554;28;20034;-63
2022/02/07 03:58:14;;;;;;;6.30;0.57;;;20.00;99.90;;;;;;5015770;28;20068;-63
2022/02/07 04:00:53;;;;;;;3.58;0.98;;;20.10;99.90;;;;;;5019502;28;20026;-64
2022/02/07 04:03:25;;;;;;;6.80;0.63;;;20.30;99.90;;;;;;5028708;28;20101;-63
2022/02/07 04:06:05;;;;;;;7.03;0.80;;;20.40;99.90;;;;;;5035457;28;20032;-63
2022/02/07 04:08:40;;;;;;;9.50;1.80;;;20.50;99.90;;;;;;5021565;28;20034;-63
2022/02/07 04:11:15;;;;;;;;;;;20.60;99.90;;;;;;5016451;28;20087;-63
2022/02/07 04:13:48;;;;;;;4.90;0.70;;;20.70;99.90;;;;;;5016880;28;19913;-63
2022/02/07 04:16:16;;;;;;;12.80;1.17;;;20.80;99.90;;;;;;5022470;28;20056;-63
2022/02/07 04:18:53;;;;;;;13.00;1.38;;;20.80;99.90;;;;;;5036709;28;20085;-63
2022/02/07 04:21:21;;;;;;;15.60;2.20;;;20.90;99.90;;;;;;5036478;28;20397;-63
2022/02/07 04:23:48;;;;;;;9.25;2.00;;;20.90;99.90;;;;;;5024117;28;20046;-63
2022/02/07 04:26:16;;;;;;;7.60;1.48;;;20.90;99.90;;;;;;5015796;28;20022;-63
2022/02/07 04:28:43;;;;;;;11.05;1.83;;;20.90;99.90;;;;;;5024879;28;20490;-63
2022/02/07 04:31:10;;;;;;;13.73;1.75;;;21.00;99.90;;;;;;5016329;28;20048;-63
2022/02/07 04:33:37;;;;;;;11.43;1.00;;;21.20;99.90;;;;;;5023201;28;20029;-64
2022/02/07 04:36:05;;;;;;;7.85;1.30;;;21.40;99.90;;;;;;5031134;28;20082;-63
2022/02/07 04:38:32;;;;;;;8.70;1.63;;;21.30;99.90;;;;;;5018861;28;20084;-63
2022/02/07 04:41:00;;;;;;;11.45;1.38;;;21.30;99.90;;;;;;5021279;28;20056;-63
2022/02/07 04:43:27;;;;;;;19.38;2.53;;;21.20;99.90;;;;;;5017775;28;20056;-63
2022/02/07 04:46:08;;;;;;;10.23;1.95;;;21.00;99.90;;;;;;5019269;28;20026;-63
2022/02/07 04:59:12;;;;;;;6.38;1.15;;;20.70;99.90;;;;;;5031732;28;20068;-63
2022/02/07 05:01:56;;;;;;;14.15;2.53;;;20.80;99.90;;;;;;5025534;28;20083;-64
2022/02/07 05:04:31;;;;;;;15.25;2.00;;;20.90;99.90;;;;;;5030963;28;20029;-64
2022/02/07 05:15:15;;;;;;;10.63;1.55;;;21.40;99.90;;;;;;5023225;28;20036;-64
2022/02/07 05:17:42;;;;;;;8.95;1.50;;;21.50;99.90;;;;;;5023552;28;20038;-64
2022/02/07 05:20:10;;;;;;;11.13;1.98;;;21.50;99.90;;;;;;5021724;28;20025;-65
2022/02/07 05:22:38;;;;;;;7.97;1.40;;;21.40;99.90;;;;;;5019805;28;20774;-64
2022/02/07 05:25:06;;;;;;;11.75;1.20;;;21.50;99.90;;;;;;5020832;28;20036;-64
2022/02/07 05:27:34;;;;;;;7.93;1.17;;;21.50;99.90;;;;;;5025177;28;20052;-65
2022/02/07 05:30:02;;;;;;;10.45;1.30;;;21.60;99.90;;;;;;5013989;28;20030;-64
2022/02/07 05:32:29;;;;;;;11.07;1.73;;;21.60;99.90;;;;;;5021762;28;20038;-64
2022/02/07 05:34:57;;;;;;;6.05;1.08;;;21.60;99.90;;;;;;5017586;28;20025;-64
2022/02/07 05:37:24;;;;;;;10.70;1.73;;;21.60;99.90;;;;;;5006455;28;20032;-63
2022/02/07 05:39:57;;;;;;;9.95;1.90;;;21.60;99.90;;;;;;5031620;28;20113;-64
2022/02/07 05:42:24;;;;;;;6.47;1.27;;;21.50;99.90;;;;;;5021076;28;20429;-64
2022/02/07 05:44:51;;;;;;;8.35;1.42;;;21.50;99.90;;;;;;5020548;28;20075;-64
2022/02/07 05:47:19;;;;;;;20.83;2.40;;;21.40;99.90;;;;;;5017960;28;20557;-63
2022/02/07 05:49:46;;;;;;;8.98;1.98;;;21.40;99.90;;;;;;5029274;28;20054;-63
2022/02/07 05:52:13;;;;;;;10.73;1.50;;;21.40;99.90;;;;;;5017953;28;20030;-63
2022/02/07 05:54:41;;;;;;;12.27;1.63;;;21.30;99.90;;;;;;5019347;28;20038;-64
2022/02/07 05:57:08;;;;;;;10.88;1.70;;;21.20;99.90;;;;;;5019960;28;20034;-64
2022/02/07 05:59:35;;;;;;;9.23;1.33;;;21.00;99.90;;;;;;5013188;28;20076;-64
2022/02/07 06:02:02;;;;;;;9.70;1.83;;;20.90;99.90;;;;;;5019116;28;20071;-64
2022/02/07 06:04:30;;;;;;;14.93;2.13;;;20.90;99.90;;;;;;5017113;28;20034;-64
2022/02/07 06:06:57;;;;;;;9.77;1.38;;;20.90;99.90;;;;;;5022456;28;20057;-64
2022/02/07 06:09:24;;;;;;;12.57;2.13;;;20.70;99.90;;;;;;5029016;28;20083;-64
2022/02/07 06:11:52;;;;;;;8.57;1.52;;;20.70;99.90;;;;;;5021607;28;20075;-64
2022/02/07 06:14:19;;;;;;;9.07;1.70;;;20.80;99.90;;;;;;5018916;28;20025;-62
2022/02/07 06:16:46;;;;;;;8.52;2.08;;;20.90;99.90;;;;;;5023531;28;20002;-62
2022/02/07 06:19:13;;;;;;;9.02;1.40;;;21.00;99.90;;;;;;5015724;28;20021;-62
2022/02/07 06:21:41;;;;;;;10.18;1.88;;;21.10;99.90;;;;;;5021649;28;20030;-62
2022/02/07 06:24:08;;;;;;;9.82;1.58;;;21.20;99.90;;;;;;5016962;28;20030;-62
2022/02/07 06:26:36;;;;;;;9.43;1.42;;;21.50;99.90;;;;;;5015899;28;20022;-62
2022/02/07 06:29:04;;;;;;;10.38;1.25;;;21.80;99.90;;;;;;5021012;28;20355;-65
2022/02/07 06:31:31;;;;;;;5.78;1.27;;;22.10;99.90;;;;;;5013418;28;20491;-62
2022/02/07 06:33:59;;;;;;;9.88;1.13;;;22.50;99.90;;;;;;5023252;28;20037;-62
2022/02/07 06:36:27;;;;;;;8.82;1.60;;;22.40;99.90;;;;;;5020926;28;20029;-62
2022/02/07 06:38:54;;;;;;;12.15;2.30;;;22.30;99.90;;;;;;5025313;28;20427;-62
2022/02/07 06:41:22;;;;;;;11.55;2.72;;;22.10;99.90;;;;;;5018894;28;20018;-63
2022/02/07 06:43:49;;;;;;;8.40;1.13;;;22.00;99.90;;;;;;5012691;28;20418;-62
2022/02/07 06:46:17;;;;;;;10.05;1.42;;;21.90;99.90;;;;;;5022780;28;20033;-62
2022/02/07 06:48:44;;;;;;;8.88;1.05;;;21.80;99.90;;;;;;5015799;28;20041;-62
2022/02/07 06:51:11;;;;;;;8.32;1.88;;;21.70;99.90;;;;;;5012892;28;20364;-62
2022/02/07 06:53:39;;;;;;;5.80;0.90;;;21.60;99.90;;;;;;5013002;28;20137;-62
2022/02/07 06:56:06;;;;;;;11.25;1.58;;;21.60;99.90;;;;;;5012870;28;20459;-62
2022/02/07 06:58:34;;;;;;;12.07;1.73;;;21.70;99.90;;;;;;5016160;28;20045;-62
2022/02/07 07:01:03;;;;;;;7.75;1.80;;;21.60;99.90;;;;;;5020239;28;20048;-62
2022/02/07 07:03:33;;;;;;;10.48;1.77;;;21.60;99.90;;;;;;5013741;28;20041;-64
2022/02/07 07:06:04;;;;;;;11.10;1.50;;;21.60;99.90;;;;;;5014746;28;20075;-64
2022/02/07 07:08:37;;;;;;;8.18;1.10;;;21.50;99.90;;;;;;5020493;28;20029;-65
2022/02/07 07:11:05;;;;;;;10.30;1.30;;;21.50;99.90;;;;;;5022232;28;20113;-63
2022/02/07 07:13:47;;;;;;;7.22;1.15;;;21.50;99.90;;;;;;5012636;28;20041;-64
2022/02/07 07:18:44;;;;;;;7.72;1.35;;;21.50;99.90;;;;;;5017413;28;20056;-63
2022/02/07 07:21:12;;;;;;;8.85;1.10;;;21.50;99.90;;;;;;5026976;28;20042;-63
2022/02/07 07:23:40;;;;;;;9.23;1.20;;;21.50;99.90;;;;;;5000763;28;20602;-63
2022/02/07 07:26:07;;;;;;;17.63;1.90;;;21.40;99.90;;;;;;5019542;28;21861;-63
2022/02/07 07:28:37;;;;;;;8.10;1.42;;;21.40;99.90;;;;;;5026667;28;20037;-63
2022/02/07 07:31:08;;;;;;;8.73;1.48;;;21.40;99.90;;;;;;5026226;28;20034;-63
2022/02/07 07:33:36;;;;;;;10.38;1.17;;;21.40;99.90;;;;;;5022158;28;20485;-62
2022/02/07 07:36:04;;;;;;;7.63;1.33;;;21.40;99.90;;;;;;5016532;28;20076;-64
2022/02/07 07:38:31;;;;;;;9.32;0.95;;;21.40;99.90;;;;;;5027899;28;20033;-63
2022/02/07 07:40:58;;;;;;;6.75;1.02;;;21.30;99.90;;;;;;5027777;28;20022;-63
2022/02/07 07:43:26;;;;;;;8.98;0.85;;;21.30;99.90;;;;;;5024220;28;20021;-63
2022/02/07 07:46:02;;;;;;;7.55;0.73;;;21.40;99.90;;;;;;5025765;28;20026;-63
2022/02/07 07:48:31;;;;;;;10.13;1.10;;;21.40;99.90;;;;;;5031714;28;20027;-63
2022/02/07 08:02:00;;;;;;;11.85;1.77;;;21.20;99.90;;;;;;5054397;28;20091;-63
2022/02/07 08:04:32;;;;;;;5.57;0.68;;;21.10;99.90;;;;;;5046362;28;20036;-63
2022/02/07 08:10:01;;;;;;;8.32;2.03;;;20.60;99.90;;;;;;5058128;28;20155;-62
2022/02/07 08:12:29;;;;;;;5.43;1.10;;;20.40;99.90;;;;;;5057044;28;20037;-62
2022/02/07 08:14:56;;;;;;;5.60;1.42;;;20.30;99.90;;;;;;5060117;28;20400;-63
2022/02/07 08:17:24;;;;;;;8.80;1.35;;;20.40;99.90;;;;;;5060375;28;20272;-63
2022/02/07 08:19:52;;;;;;;9.25;1.20;;;20.30;99.90;;;;;;5061918;28;20025;-63
2022/02/07 08:22:24;;;;;;;5.57;1.25;;;20.20;99.90;;;;;;5059081;28;20090;-63
2022/02/07 08:24:55;;;;;;;13.30;1.75;;;20.10;99.90;;;;;;5058795;28;20035;-63
2022/02/07 08:27:26;;;;;;;7.95;1.48;;;20.00;99.90;;;;;;5062205;28;20036;-62
2022/02/07 08:29:55;;;;;;;8.32;1.42;;;19.90;99.90;;;;;;5059759;28;20491;-62
2022/02/07 08:32:23;;;;;;;10.85;2.22;;;19.90;99.90;;;;;;5060824;28;20040;-62
2022/02/07 08:34:50;;;;;;;10.10;1.90;;;20.00;99.90;;;;;;5064971;28;20040;-62
2022/02/07 08:37:18;;;;;;;6.68;1.65;;;20.00;99.90;;;;;;5060785;28;20040;-62
2022/02/07 08:39:45;;;;;;;6.80;1.20;;;20.00;99.90;;;;;;5063663;28;21303;-62
2022/02/07 08:42:12;;;;;;;6.07;0.70;;;19.90;99.90;;;;;;5047085;28;20033;-62
2022/02/07 08:44:40;;;;;;;6.05;1.35;;;19.80;99.90;;;;;;5050503;28;20044;-62
2022/02/07 08:47:07;;;;;;;7.57;1.00;;;19.70;99.90;;;;;;5043816;28;20033;-62
2022/02/07 08:49:36;;;;;;;8.55;1.00;;;19.90;99.90;;;;;;5049148;28;20095;-63
2022/02/07 08:52:04;;;;;;;7.38;1.17;;;20.10;99.90;;;;;;5049494;28;20111;-63
2022/02/07 08:54:32;;;;;;;8.25;1.00;;;20.10;99.90;;;;;;5015062;28;20076;-63
2022/02/07 08:57:13;;;;;;;11.15;1.83;;;20.20;99.90;;;;;;5040470;28;20025;-63
2022/02/07 08:59:54;;;;;;;9.80;1.58;;;20.20;99.90;;;;;;5047182;28;20124;-63
2022/02/07 09:02:50;;;;;;;7.57;1.35;;;20.20;99.90;;;;;;5048020;28;20100;-63
2022/02/07 09:05:40;;;;;;;9.05;1.05;;;20.30;99.90;;;;;;5025851;28;20096;-62
2022/02/07 09:08:21;;;;;;;9.68;1.00;;;20.30;99.90;;;;;;5028135;28;20045;-62
2022/02/07 09:10:50;;;;;;;7.95;0.95;;;20.30;99.90;;;;;;5039438;28;20072;-62
2022/02/07 09:13:18;;;;;;;6.43;1.00;;;20.30;99.90;;;;;;5041542;28;20040;-62
2022/02/07 09:16:17;;;;;;;9.00;1.63;;;20.30;99.90;;;;;;5046432;28;20390;-62
2022/02/07 09:18:44;;;;;;;4.63;0.80;;;20.30;99.90;;;;;;5048859;28;20412;-63
2022/02/07 09:21:12;;;;;;;5.53;1.15;;;20.40;99.90;;;;;;5042062;28;20108;-62
2022/02/07 09:23:41;;;;;;;8.38;1.27;;;20.30;99.90;;;;;;5042904;28;20465;-63
2022/02/07 09:26:08;;;;;;;7.15;1.38;;;20.30;99.90;;;;;;5039732;28;20025;-63
2022/02/07 09:28:36;;;;;;;11.40;1.35;;;20.30;99.90;;;;;;5044808;28;20545;-63
2022/02/07 09:31:03;;;;;;;10.15;1.88;;;20.40;99.90;;;;;;5041413;28;20029;-62
2022/02/07 09:33:30;;;;;;;6.95;1.40;;;20.40;99.90;;;;;;5045567;28;20029;-62
2022/02/07 09:35:58;;;;;;;9.02;1.00;;;20.40;99.90;;;;;;5047501;28;20499;-62
2022/02/07 09:38:25;;;;;;;8.35;1.55;;;20.40;99.90;;;;;;5059560;28;20035;-62
2022/02/07 09:40:54;;;;;;;6.80;1.63;;;20.40;99.90;;;;;;5043177;28;20025;-62
2022/02/07 09:43:26;;;;;;;6.90;1.20;;;20.40;99.90;;;;;;5044540;28;20390;-63
2022/02/07 09:45:54;;;;;;;9.50;1.30;;;20.40;99.90;;;;;;5041715;28;20095;-63
2022/02/07 09:48:22;;;;;;;10.27;1.17;;;20.40;99.90;;;;;;5042889;28;20037;-63
2022/02/07 09:50:49;;;;;;;10.50;1.83;;;20.40;99.90;;;;;;5039631;28;20018;-63
2022/02/07 09:53:17;;;;;;;9.18;1.27;;;20.40;99.90;;;;;;5041331;28;20467;-63
2022/02/07 09:55:45;;;;;;;9.00;1.20;;;20.40;99.90;;;;;;5047961;28;20284;-63
2022/02/07 09:58:15;;;;;;;7.35;0.90;;;20.30;99.90;;;;;;5048850;28;20029;-63
2022/02/07 10:00:42;;;;;;;6.82;1.38;;;20.30;99.90;;;;;;5033457;28;20093;-63
2022/02/07 10:03:17;;;;;;;9.43;1.08;;;20.30;99.90;;;;;;5036813;28;20051;-63
2022/02/07 10:05:54;;;;;;;7.15;1.10;;;20.20;99.90;;;;;;5051445;28;20021;-63
2022/02/07 10:08:45;;;;;;;9.00;1.65;;;20.20;99.90;;;;;;5033031;28;20121;-63
2022/02/07 10:14:00;;;;;;;8.00;1.48;;;20.20;99.90;;;;;;5032712;28;20111;-63
2022/02/07 10:16:52;;;;;;;11.35;1.40;;;20.20;99.90;;;;;;5042433;28;20080;-63
2022/02/07 10:41:37;;;;;;;8.55;0.90;;;20.20;99.90;;;;;;5039401;28;20022;-63
2022/02/07 10:47:22;;;;;;;8.25;1.90;;;20.20;99.90;;;;;;5040840;28;20025;-63
2022/02/07 10:50:13;;;;;;;6.30;1.15;;;20.20;99.90;;;;;;5042408;28;20057;-63
2022/02/07 10:53:02;;;;;;;9.25;1.17;;;20.20;99.90;;;;;;5047618;28;20053;-63
2022/02/07 10:55:32;;;;;;;8.20;1.70;;;20.10;99.90;;;;;;5051805;28;20499;-63
2022/02/07 10:58:03;;;;;;;8.23;1.02;;;20.20;99.90;;;;;;5041536;28;20035;-63
2022/02/07 11:00:40;;;;;;;8.80;1.55;;;20.10;99.90;;;;;;5039153;28;20655;-63
2022/02/07 11:03:21;;;;;;;7.78;1.15;;;20.10;99.90;;;;;;5038121;28;20523;-62
2022/02/07 11:05:53;;;;;;;5.25;0.60;;;19.90;99.90;;;;;;5043535;28;20533;-63
2022/02/07 11:08:26;;;;;;;7.22;0.82;;;19.60;99.90;;;;;;5038307;28;20167;-62
2022/02/07 11:11:11;;;;;;;7.90;1.17;;;19.50;99.90;;;;;;5040069;28;20100;-63
2022/02/07 11:22:24;;;;;;;6.05;0.90;;;19.10;99.90;;;;;;5045803;28;20060;-63
2022/02/07 11:27:42;;;;;;;4.00;0.65;;;19.10;99.90;;;;;;5036392;28;20034;-63
2022/02/07 11:30:18;;;;;;;6.85;1.23;;;19.00;99.90;;;;;;5036748;28;20044;-63
2022/02/07 11:32:49;;;;;;;7.07;1.00;;;19.00;99.90;;;;;;5049657;28;20044;-62
2022/02/07 11:35:17;;;;;;;5.68;1.45;;;18.80;99.90;;;;;;5044368;28;20041;-62
2022/02/07 11:38:10;;;;;;;8.60;1.83;;;18.80;99.90;;;;;;5045040;28;20151;-63
2022/02/07 11:40:44;;;;;;;5.07;0.70;;;18.60;99.90;;;;;;5048107;28;20034;-62
2022/02/07 11:43:17;;;;;;;7.93;2.38;;;18.70;99.90;;;;;;5044548;28;20041;-62
2022/02/07 11:46:12;;;;;;;6.57;1.20;;;18.70;99.90;;;;;;5043240;28;20029;-63
2022/02/07 11:48:48;;;;;;;7.32;1.58;;;18.70;99.90;;;;;;5028112;28;20033;-63
2022/02/07 11:51:22;;;;;;;3.80;0.50;;;18.60;99.90;;;;;;5036951;28;20025;-62
2022/02/07 11:53:53;;;;;;;5.72;1.15;;;18.70;99.90;;;;;;5035488;28;20087;-63
2022/02/07 11:56:45;;;;;;;6.18;1.10;;;18.70;99.90;;;;;;5039686;28;20067;-63
2022/02/07 11:59:40;;;;;;;8.20;0.90;;;18.60;99.90;;;;;;5051140;28;20025;-63
2022/02/07 12:02:17;;;;;;;6.20;0.82;;;18.70;99.90;;;;;;5048735;28;20053;-63
2022/02/07 12:04:53;;;;;;;6.05;0.80;;;18.60;99.90;;;;;;5035839;28;20034;-63
2022/02/07 12:07:21;;;;;;;4.05;0.60;;;18.50;99.90;;;;;;5043499;28;20577;-63
2022/02/07 12:10:05;;;;;;;9.10;0.73;;;18.60;99.90;;;;;;5035339;28;20021;-63
2022/02/07 12:12:51;;;;;;;2.13;0.60;;;18.60;99.90;;;;;;5036958;28;20056;-63
2022/02/07 12:15:35;;;;;;;10.18;1.38;;;18.60;99.90;;;;;;5035674;28;20033;-63
2022/02/07 12:18:22;;;;;;;7.43;1.20;;;18.60;99.90;;;;;;5036353;28;20022;-63
2022/02/07 12:20:52;;;;;;;5.65;1.23;;;18.60;99.90;;;;;;5045813;28;20470;-63
2022/02/07 12:23:24;;;;;;;4.85;0.95;;;18.50;99.90;;;;;;5039408;28;20045;-63
2022/02/07 12:26:04;;;;;;;8.15;1.05;;;18.50;99.90;;;;;;5042081;28;20104;-63
2022/02/07 12:31:19;;;;;;;4.47;0.50;;;18.60;99.90;;;;;;5050256;28;20036;-63
2022/02/07 12:33:57;;;;;;;4.63;0.75;;;18.60;99.90;;;;;;5047557;28;20037;-63
2022/02/07 12:36:30;;;;;;;3.90;0.60;;;18.40;99.90;;;;;;5037924;28;20444;-63
2022/02/07 12:38:58;;;;;;;6.97;0.98;;;18.30;99.90;;;;;;5036568;28;20033;-63
2022/02/07 12:41:26;;;;;;;8.43;1.55;;;18.30;99.90;;;;;;5036061;28;20026;-63
2022/02/07 12:43:56;;;;;;;5.85;1.25;;;18.30;99.90;;;;;;5050291;28;20052;-63
2022/02/07 12:46:25;;;;;;;6.40;1.00;;;18.40;99.90;;;;;;5042652;28;20030;-63
2022/02/07 12:49:01;;;;;;;9.23;1.10;;;18.40;99.90;;;;;;5041755;28;20022;-63
2022/02/07 12:51:32;;;;;;;10.77;0.93;;;18.40;99.90;;;;;;5048074;28;20401;-63
2022/02/07 12:54:00;;;;;;;6.72;0.88;;;18.40;99.90;;;;;;5044571;28;20501;-63
2022/02/07 12:56:29;;;;;;;6.22;1.00;;;18.40;99.90;;;;;;5035424;28;20074;-63
2022/02/07 12:58:57;;;;;;;9.50;1.60;;;18.20;99.90;;;;;;5047164;28;20021;-63
2022/02/07 13:01:32;;;;;;;5.70;1.10;;;18.10;99.90;;;;;;5045193;28;20486;-63
2022/02/07 13:04:03;;;;;;;5.53;0.65;;;18.00;99.90;;;;;;5050465;28;20129;-63
2022/02/07 13:06:45;;;;;;;7.22;1.33;;;17.90;99.90;;;;;;5038525;28;20047;-63
2022/02/07 13:09:21;;;;;;;10.82;1.27;;;17.80;99.90;;;;;;5036923;28;20427;-63
2022/02/07 13:12:00;;;;;;;5.65;1.33;;;17.80;99.90;;;;;;5035209;28;20485;-63
2022/02/07 13:14:29;;;;;;;6.40;1.30;;;17.80;99.90;;;;;;5034506;28;20521;-63
2022/02/07 13:16:57;;;;;;;4.25;0.88;;;17.80;99.90;;;;;;5023697;28;20078;-63
2022/02/07 13:19:27;;;;;;;8.98;0.55;;;17.70;99.90;;;;;;5034474;28;20087;-63
2022/02/07 13:21:55;;;;;;;7.47;1.08;;;17.70;99.90;;;;;;5041102;28;20091;-62
2022/02/07 13:24:30;;;;;;;5.88;0.75;;;17.70;99.90;;;;;;5051971;28;20037;-62
2022/02/07 13:27:00;;;;;;;5.82;0.65;;;17.60;99.90;;;;;;5052729;28;20079;-62
2022/02/07 13:29:42;;;;;;;7.82;1.23;;;17.60;99.90;;;;;;5036484;28;20029;-62
2022/02/07 13:32:10;;;;;;;9.32;0.95;;;17.60;99.90;;;;;;5038954;28;20017;-62
2022/02/07 13:34:38;;;;;;;9.93;1.33;;;17.60;99.90;;;;;;5054878;28;20131;-62
2022/02/07 13:37:08;;;;;;;5.57;0.60;;;17.50;99.90;;;;;;5053954;28;20025;-62
2022/02/07 13:42:31;;;;;;;6.40;0.80;;;17.40;99.90;;;;;;5023457;28;20499;-63
2022/02/07 13:45:00;;;;;;;6.07;0.82;;;17.30;99.90;;;;;;5019728;28;20547;-63
2022/02/07 13:47:28;;;;;;;5.40;0.82;;;17.40;99.90;;;;;;5032499;28;20436;-63
2022/02/07 13:50:03;;;;;;;7.82;0.73;;;17.30;99.90;;;;;;5034719;28;20036;-63
2022/02/07 13:52:32;;;;;;;5.63;0.80;;;17.30;99.90;;;;;;5033262;28;20025;-63
2022/02/07 13:55:21;;;;;;;5.65;1.20;;;17.40;99.90;;;;;;5033422;28;20037;-63
2022/02/07 13:58:11;;;;;;;6.80;1.08;;;17.40;99.90;;;;;;5031168;28;20055;-63
2022/02/07 14:00:48;;;;;;;4.07;1.00;;;17.40;99.90;;;;;;5031566;28;20592;-62
2022/02/07 14:03:19;;;;;;;5.28;0.60;;;17.40;99.90;;;;;;5031178;28;20371;-63
2022/02/07 14:05:50;;;;;;;7.25;0.90;;;17.40;99.90;;;;;;5032293;28;20429;-63
2022/02/07 14:08:29;;;;;;;4.10;0.80;;;17.40;99.90;;;;;;5031660;28;20445;-63
2022/02/07 14:10:56;;;;;;;6.45;0.80;;;17.40;99.90;;;;;;5033033;28;20032;-63
2022/02/07 14:13:24;;;;;;;10.45;1.13;;;17.40;99.90;;;;;;5032408;28;20363;-63
2022/02/07 14:15:51;;;;;;;8.18;2.05;;;17.40;99.90;;;;;;5033424;28;20049;-63
2022/02/07 14:18:20;;;;;;;10.90;2.08;;;17.30;99.90;;;;;;5032741;28;20025;-63
2022/02/07 14:20:49;;;;;;;5.30;0.60;;;17.30;99.90;;;;;;5024003;28;20025;-62
2022/02/07 14:23:17;;;;;;;7.10;1.05;;;17.20;99.90;;;;;;5031382;28;20063;-63
2022/02/07 14:25:48;;;;;;;6.47;0.70;;;17.20;99.90;;;;;;5035476;28;20064;-63
2022/02/07 14:28:16;;;;;;;6.00;0.75;;;17.20;99.90;;;;;;5035419;28;20108;-62
2022/02/07 14:30:44;;;;;;;7.43;0.73;;;17.20;99.90;;;;;;5035001;28;20501;-63
2022/02/07 14:33:12;;;;;;;6.75;0.70;;;17.10;99.90;;;;;;5034846;28;20506;-63
2022/02/07 14:35:39;;;;;;;4.93;1.05;;;17.00;99.90;;;;;;5037122;28;20025;-62
2022/02/07 14:38:07;;;;;;;6.22;0.90;;;17.00;99.90;;;;;;5043978;28;20040;-62
2022/02/07 14:40:37;;;;;;;5.63;1.10;;;16.90;99.90;;;;;;5044496;28;20057;-62
2022/02/07 14:43:05;;;;;;;5.38;0.82;;;16.90;99.90;;;;;;5049161;28;20029;-62
2022/02/07 14:46:22;;;;;;;10.85;0.90;;;16.60;99.90;;;;;;5052229;28;20044;-62
2022/02/07 14:48:25;;;;;;;7.32;0.90;;;16.40;99.90;;;;;;5044363;28;20021;-62
2022/02/07 14:50:53;;;;;;;6.50;0.95;;;16.40;99.90;;;;;;5050528;28;20048;-62
2022/02/07 14:53:20;;;;;;;5.47;0.90;;;16.40;99.90;;;;;;5051242;28;20093;-62
2022/02/07 14:55:47;;;;;;;7.40;1.10;;;16.30;99.90;;;;;;5050840;28;20063;-62
2022/02/07 14:58:15;;;;;;;6.13;1.20;;;16.30;99.90;;;;;;5049609;28;20056;-63
2022/02/07 15:00:42;;;;;;;7.78;1.20;;;16.20;99.90;;;;;;5052862;28;20009;-62
2022/02/07 15:03:15;;;;;;;11.20;1.85;;;16.10;99.90;;;;;;5054049;28;20044;-62
2022/02/07 15:05:43;;;;;;;5.53;1.50;;;16.20;99.90;;;;;;5054653;28;20036;-62
2022/02/07 15:08:10;;;;;;;3.33;1.42;;;16.10;99.90;;;;;;5054804;28;20071;-62
2022/02/07 15:10:37;;;;;;;8.38;1.60;;;16.10;99.90;;;;;;5053630;28;20018;-62
2022/02/07 15:13:07;;;;;;;6.75;1.17;;;16.10;99.90;;;;;;5050824;28;20044;-62
2022/02/07 15:15:36;;;;;;;7.63;1.13;;;16.10;99.90;;;;;;5053110;28;20060;-63
2022/02/07 15:18:07;;;;;;;4.63;1.25;;;16.20;99.90;;;;;;5052541;28;20033;-62
2022/02/07 15:20:36;;;;;;;8.10;1.45;;;16.10;99.90;;;;;;5054942;28;20034;-62
2022/02/07 15:23:05;;;;;;;5.40;1.15;;;16.10;99.90;;;;;;5052841;28;20021;-62
2022/02/07 15:25:35;;;;;;;6.70;1.38;;;16.20;99.90;;;;;;5054286;28;20052;-62
2022/02/07 15:28:08;;;;;;;6.60;1.30;;;16.20;99.90;;;;;;5054031;28;20021;-62
2022/02/07 15:30:41;;;;;;;10.32;1.77;;;16.10;99.90;;;;;;5048424;28;20033;-62
2022/02/07 15:33:12;;;;;;;6.47;1.40;;;16.20;99.90;;;;;;5033115;28;20034;-62
2022/02/07 15:35:41;;;;;;;8.07;1.30;;;16.20;99.90;;;;;;5053322;28;20029;-63